sensor_id;sensor_type;location;lat;lon;timestamp;P1;P2;P0
68698;PMS7003;55680;48.850;2.310;2024-01-27T00:00:04;2.00;2.00;1.00
68698;PMS7003;55680;48.850;2.310;2024-01-27T00:02:29;1.50;1.50;0.00
68698;PMS7003;55680;48.850;2.310;2024-01-27T00:04:55;6.33;3.00;1.00
68698;PMS7003;55680;48.850;2.310;2024-01-27T00:07:20;1.00;1.00;0.00
68698;PMS7003;55680;48.850;2.310;2024-01-27T00:09:45;7.50;6.00;1.50
68698;PMS7003;55680;48.850;2.310;2024-01-27T00:12:11;1.50;1.00;0.75
68698;PMS7003;55680;48.850;2.310;2024-01-27T00:14:39;1.50;1.50;1.00
68698;PMS7003;55680;48.850;2.310;2024-01-27T00:17:05;1.00;1.00;0.00
68698;PMS7003;55680;48.850;2.310;2024-01-27T00:19:30;3.00;3.00;1.00
68698;PMS7003;55680;48.850;2.310;2024-01-27T00:21:56;3.00;2.33;1.00
68698;PMS7003;55680;48.850;2.310;2024-01-27T00:24:21;0.25;0.25;0.00
68698;PMS7003;55680;48.850;2.310;2024-01-27T00:26:46;1.00;1.00;1.00
68698;PMS7003;55680;48.850;2.310;2024-01-27T00:29:12;0.00;0.00;0.00
68698;PMS7003;55680;48.850;2.310;2024-01-27T00:31:37;0.00;0.00;0.00
68698;PMS7003;55680;48.850;2.310;2024-01-27T00:34:02;0.75;0.75;0.00
68698;PMS7003;55680;48.850;2.310;2024-01-27T00:36:28;1.00;1.00;0.00
68698;PMS7003;55680;48.850;2.310;2024-01-27T00:38:53;1.00;1.00;1.00
68698;PMS7003;55680;48.850;2.310;2024-01-27T00:41:18;0.00;0.00;0.00
68698;PMS7003;55680;48.850;2.310;2024-01-27T00:43:44;0.50;0.50;0.00
68698;PMS7003;55680;48.850;2.310;2024-01-27T00:46:10;1.00;1.00;0.00
68698;PMS7003;55680;48.850;2.310;2024-01-27T00:48:35;6.00;3.00;0.00
68698;PMS7003;55680;48.850;2.310;2024-01-27T00:51:01;1.00;1.00;0.00
68698;PMS7003;55680;48.850;2.310;2024-01-27T00:53:26;0.00;0.00;0.00
68698;PMS7003;55680;48.850;2.310;2024-01-27T00:55:51;0.25;0.25;0.00
68698;PMS7003;55680;48.850;2.310;2024-01-27T00:58:16;0.25;0.25;0.25
68698;PMS7003;55680;48.850;2.310;2024-01-27T01:00:42;6.00;1.00;0.00
68698;PMS7003;55680;48.850;2.310;2024-01-27T01:03:07;1.75;1.00;0.00
68698;PMS7003;55680;48.850;2.310;2024-01-27T01:05:33;0.00;0.00;0.00
68698;PMS7003;55680;48.850;2.310;2024-01-27T01:07:58;0.00;0.00;0.00
68698;PMS7003;55680;48.850;2.310;2024-01-27T01:10:23;2.00;2.00;1.00
68698;PMS7003;55680;48.850;2.310;2024-01-27T01:12:49;3.00;1.00;0.00
68698;PMS7003;55680;48.850;2.310;2024-01-27T01:15:14;0.00;0.00;0.00
68698;PMS7003;55680;48.850;2.310;2024-01-27T01:17:41;3.75;2.00;1.00
68698;PMS7003;55680;48.850;2.310;2024-01-27T01:20:06;4.75;4.00;1.00
68698;PMS7003;55680;48.850;2.310;2024-01-27T01:22:32;3.75;1.00;1.00
68698;PMS7003;55680;48.850;2.310;2024-01-27T01:24:58;3.25;3.25;2.00
68698;PMS7003;55680;48.850;2.310;2024-01-27T01:27:23;3.33;3.00;1.00
68698;PMS7003;55680;48.850;2.310;2024-01-27T01:29:48;8.00;3.50;1.00
68698;PMS7003;55680;48.850;2.310;2024-01-27T01:32:16;3.00;3.00;3.00
68698;PMS7003;55680;48.850;2.310;2024-01-27T01:34:41;8.00;3.75;3.00
68698;PMS7003;55680;48.850;2.310;2024-01-27T01:37:06;1.00;1.00;1.00
68698;PMS7003;55680;48.850;2.310;2024-01-27T01:39:32;6.00;4.00;3.00
68698;PMS7003;55680;48.850;2.310;2024-01-27T01:41:57;4.00;4.00;3.00
68698;PMS7003;55680;48.850;2.310;2024-01-27T01:44:22;3.50;3.50;2.50
68698;PMS7003;55680;48.850;2.310;2024-01-27T01:46:51;6.00;5.50;3.00
68698;PMS7003;55680;48.850;2.310;2024-01-27T01:49:16;2.50;2.50;1.50
68698;PMS7003;55680;48.850;2.310;2024-01-27T01:51:41;4.50;4.50;3.00
68698;PMS7003;55680;48.850;2.310;2024-01-27T01:54:07;4.50;4.50;4.00
68698;PMS7003;55680;48.850;2.310;2024-01-27T01:56:32;3.50;3.00;1.00
68698;PMS7003;55680;48.850;2.310;2024-01-27T01:58:58;2.00;1.00;0.00
68698;PMS7003;55680;48.850;2.310;2024-01-27T02:01:23;3.00;3.00;0.25
68698;PMS7003;55680;48.850;2.310;2024-01-27T02:03:52;6.67;3.00;3.00
68698;PMS7003;55680;48.850;2.310;2024-01-27T02:06:18;4.00;4.00;3.00
68698;PMS7003;55680;48.850;2.310;2024-01-27T02:08:44;3.00;3.00;3.00
68698;PMS7003;55680;48.850;2.310;2024-01-27T02:11:09;3.00;3.00;1.00
68698;PMS7003;55680;48.850;2.310;2024-01-27T02:13:34;4.25;4.25;3.00
68698;PMS7003;55680;48.850;2.310;2024-01-27T02:16:00;3.00;3.00;1.00
68698;PMS7003;55680;48.850;2.310;2024-01-27T02:18:25;5.00;3.00;3.00
68698;PMS7003;55680;48.850;2.310;2024-01-27T02:20:50;4.00;4.00;3.00
68698;PMS7003;55680;48.850;2.310;2024-01-27T02:23:16;1.00;1.00;1.00
68698;PMS7003;55680;48.850;2.310;2024-01-27T02:25:41;4.00;2.75;1.50
68698;PMS7003;55680;48.850;2.310;2024-01-27T02:28:06;7.00;3.25;3.00
68698;PMS7003;55680;48.850;2.310;2024-01-27T02:30:32;3.00;2.50;2.00
68698;PMS7003;55680;48.850;2.310;2024-01-27T02:32:58;3.00;3.00;2.50
68698;PMS7003;55680;48.850;2.310;2024-01-27T02:35:23;5.50;5.50;4.00
68698;PMS7003;55680;48.850;2.310;2024-01-27T02:37:49;1.00;1.00;1.00
68698;PMS7003;55680;48.850;2.310;2024-01-27T02:40:14;3.00;3.00;1.00
68698;PMS7003;55680;48.850;2.310;2024-01-27T02:42:39;2.50;1.00;0.00
68698;PMS7003;55680;48.850;2.310;2024-01-27T02:45:07;3.00;3.00;1.00
68698;PMS7003;55680;48.850;2.310;2024-01-27T02:47:33;1.00;1.00;1.00
68698;PMS7003;55680;48.850;2.310;2024-01-27T02:49:58;5.00;3.50;1.00
68698;PMS7003;55680;48.850;2.310;2024-01-27T02:52:23;3.75;2.75;2.00
68698;PMS7003;55680;48.850;2.310;2024-01-27T02:54:50;11.50;3.50;1.50
68698;PMS7003;55680;48.850;2.310;2024-01-27T02:57:16;4.00;4.00;3.00
68698;PMS7003;55680;48.850;2.310;2024-01-27T02:59:44;3.75;3.00;1.50
68698;PMS7003;55680;48.850;2.310;2024-01-27T03:02:10;9.00;2.00;1.50
68698;PMS7003;55680;48.850;2.310;2024-01-27T03:04:36;9.75;3.75;3.00
68698;PMS7003;55680;48.850;2.310;2024-01-27T03:07:01;3.33;3.00;1.00
68698;PMS7003;55680;48.850;2.310;2024-01-27T03:09:26;4.50;3.00;1.50
68698;PMS7003;55680;48.850;2.310;2024-01-27T03:11:52;4.50;4.00;3.00
68698;PMS7003;55680;48.850;2.310;2024-01-27T03:14:17;7.75;6.25;3.00
68698;PMS7003;55680;48.850;2.310;2024-01-27T03:16:43;5.00;5.00;1.50
68698;PMS7003;55680;48.850;2.310;2024-01-27T03:19:09;4.00;2.50;1.00
68698;PMS7003;55680;48.850;2.310;2024-01-27T03:21:34;4.00;4.00;3.00
68698;PMS7003;55680;48.850;2.310;2024-01-27T03:24:00;3.25;3.00;1.50
68698;PMS7003;55680;48.850;2.310;2024-01-27T03:26:25;4.00;4.00;1.67
68698;PMS7003;55680;48.850;2.310;2024-01-27T03:28:50;6.67;4.00;1.00
68698;PMS7003;55680;48.850;2.310;2024-01-27T03:31:16;4.75;3.00;1.00
68698;PMS7003;55680;48.850;2.310;2024-01-27T03:33:41;4.00;4.00;3.00
68698;PMS7003;55680;48.850;2.310;2024-01-27T03:36:10;4.00;3.67;3.00
68698;PMS7003;55680;48.850;2.310;2024-01-27T03:38:36;0.75;0.75;0.00
68698;PMS7003;55680;48.850;2.310;2024-01-27T03:41:02;1.00;1.00;0.50
68698;PMS7003;55680;48.850;2.310;2024-01-27T03:43:28;4.50;4.50;2.50
68698;PMS7003;55680;48.850;2.310;2024-01-27T03:45:53;6.25;3.75;2.00
68698;PMS7003;55680;48.850;2.310;2024-01-27T03:48:19;1.00;1.00;0.00
68698;PMS7003;55680;48.850;2.310;2024-01-27T03:50:44;3.33;3.33;1.67
68698;PMS7003;55680;48.850;2.310;2024-01-27T03:53:09;5.00;3.00;0.50
68698;PMS7003;55680;48.850;2.310;2024-01-27T03:55:35;1.50;1.50;0.75
68698;PMS7003;55680;48.850;2.310;2024-01-27T03:58:00;3.50;3.50;1.50
68698;PMS7003;55680;48.850;2.310;2024-01-27T04:00:26;6.50;3.00;3.00
68698;PMS7003;55680;48.850;2.310;2024-01-27T04:02:52;3.75;3.00;1.50
68698;PMS7003;55680;48.850;2.310;2024-01-27T04:05:18;1.00;1.00;1.00
68698;PMS7003;55680;48.850;2.310;2024-01-27T04:07:43;3.67;3.67;3.33
68698;PMS7003;55680;48.850;2.310;2024-01-27T04:10:08;6.00;4.00;3.00
68698;PMS7003;55680;48.850;2.310;2024-01-27T04:12:34;9.00;4.00;3.00
68698;PMS7003;55680;48.850;2.310;2024-01-27T04:14:59;12.50;3.00;2.00
68698;PMS7003;55680;48.850;2.310;2024-01-27T04:17:25;9.75;4.00;3.00
68698;PMS7003;55680;48.850;2.310;2024-01-27T04:19:50;15.50;8.75;4.50
68698;PMS7003;55680;48.850;2.310;2024-01-27T04:22:15;6.50;6.50;4.50
68698;PMS7003;55680;48.850;2.310;2024-01-27T04:24:41;10.50;6.50;5.50
68698;PMS7003;55680;48.850;2.310;2024-01-27T04:27:06;10.00;7.00;5.50
68698;PMS7003;55680;48.850;2.310;2024-01-27T04:29:31;9.00;5.00;3.75
68698;PMS7003;55680;48.850;2.310;2024-01-27T04:31:57;3.25;3.00;3.00
68698;PMS7003;55680;48.850;2.310;2024-01-27T04:34:22;10.33;7.67;4.00
68698;PMS7003;55680;48.850;2.310;2024-01-27T04:36:47;10.00;10.00;6.33
68698;PMS7003;55680;48.850;2.310;2024-01-27T04:39:13;7.75;6.25;4.00
68698;PMS7003;55680;48.850;2.310;2024-01-27T04:41:42;5.75;5.50;4.00
68698;PMS7003;55680;48.850;2.310;2024-01-27T04:44:08;12.00;6.00;4.50
68698;PMS7003;55680;48.850;2.310;2024-01-27T04:46:34;15.00;10.00;8.00
68698;PMS7003;55680;48.850;2.310;2024-01-27T04:48:59;9.00;7.75;5.00
68698;PMS7003;55680;48.850;2.310;2024-01-27T04:51:24;9.33;7.00;3.67
68698;PMS7003;55680;48.850;2.310;2024-01-27T04:53:50;10.00;4.00;3.00
68698;PMS7003;55680;48.850;2.310;2024-01-27T04:56:15;6.50;6.50;4.00
68698;PMS7003;55680;48.850;2.310;2024-01-27T04:58:40;9.50;7.00;6.00
68698;PMS7003;55680;48.850;2.310;2024-01-27T05:01:06;16.00;9.33;6.00
68698;PMS7003;55680;48.850;2.310;2024-01-27T05:03:31;10.00;7.00;6.00
68698;PMS7003;55680;48.850;2.310;2024-01-27T05:05:57;9.00;7.00;4.00
68698;PMS7003;55680;48.850;2.310;2024-01-27T05:08:22;7.00;3.00;1.00
68698;PMS7003;55680;48.850;2.310;2024-01-27T05:10:47;13.75;8.50;7.00
68698;PMS7003;55680;48.850;2.310;2024-01-27T05:13:13;12.33;9.67;6.00
68698;PMS7003;55680;48.850;2.310;2024-01-27T05:15:38;8.00;8.00;4.50
68698;PMS7003;55680;48.850;2.310;2024-01-27T05:18:04;9.00;6.00;5.00
68698;PMS7003;55680;48.850;2.310;2024-01-27T05:20:29;11.50;7.00;6.00
68698;PMS7003;55680;48.850;2.310;2024-01-27T05:22:54;4.00;3.75;3.00
68698;PMS7003;55680;48.850;2.310;2024-01-27T05:25:20;8.00;6.00;4.50
68698;PMS7003;55680;48.850;2.310;2024-01-27T05:27:45;8.00;8.00;5.00
68698;PMS7003;55680;48.850;2.310;2024-01-27T05:30:10;10.00;6.33;4.00
68698;PMS7003;55680;48.850;2.310;2024-01-27T05:32:36;8.50;6.50;3.00
68698;PMS7003;55680;48.850;2.310;2024-01-27T05:35:01;10.00;6.00;4.00
68698;PMS7003;55680;48.850;2.310;2024-01-27T05:37:28;7.00;4.00;3.00
68698;PMS7003;55680;48.850;2.310;2024-01-27T05:39:53;6.00;6.00;3.75
68698;PMS7003;55680;48.850;2.310;2024-01-27T05:42:19;3.25;3.25;3.00
68698;PMS7003;55680;48.850;2.310;2024-01-27T05:44:44;4.00;4.00;3.00
68698;PMS7003;55680;48.850;2.310;2024-01-27T05:47:10;6.00;3.50;3.00
68698;PMS7003;55680;48.850;2.310;2024-01-27T05:49:36;3.25;3.25;3.00
68698;PMS7003;55680;48.850;2.310;2024-01-27T05:52:01;11.00;5.00;4.00
68698;PMS7003;55680;48.850;2.310;2024-01-27T05:54:27;4.00;4.00;3.00
68698;PMS7003;55680;48.850;2.310;2024-01-27T05:56:52;12.50;9.00;4.50
68698;PMS7003;55680;48.850;2.310;2024-01-27T05:59:17;4.00;4.00;3.00
68698;PMS7003;55680;48.850;2.310;2024-01-27T06:01:43;8.33;4.00;3.67
68698;PMS7003;55680;48.850;2.310;2024-01-27T06:04:09;6.25;4.00;3.75
68698;PMS7003;55680;48.850;2.310;2024-01-27T06:06:40;7.25;4.00;3.75
68698;PMS7003;55680;48.850;2.310;2024-01-27T06:09:06;10.25;10.25;4.00
68698;PMS7003;55680;48.850;2.310;2024-01-27T06:11:35;8.25;6.25;4.00
68698;PMS7003;55680;48.850;2.310;2024-01-27T06:14:01;1.50;1.50;1.00
68698;PMS7003;55680;48.850;2.310;2024-01-27T06:16:26;7.00;4.00;3.00
68698;PMS7003;55680;48.850;2.310;2024-01-27T06:18:51;7.00;3.00;1.00
68698;PMS7003;55680;48.850;2.310;2024-01-27T06:21:18;5.00;3.00;3.00
68698;PMS7003;55680;48.850;2.310;2024-01-27T06:23:43;6.75;3.00;1.00
68698;PMS7003;55680;48.850;2.310;2024-01-27T06:26:09;6.25;6.00;4.00
68698;PMS7003;55680;48.850;2.310;2024-01-27T06:28:35;9.75;7.00;3.75
68698;PMS7003;55680;48.850;2.310;2024-01-27T06:31:01;6.00;3.25;3.00
68698;PMS7003;55680;48.850;2.310;2024-01-27T06:33:26;6.75;3.50;1.00
68698;PMS7003;55680;48.850;2.310;2024-01-27T06:35:52;4.00;4.00;3.00
68698;PMS7003;55680;48.850;2.310;2024-01-27T06:38:17;6.25;6.25;3.00
68698;PMS7003;55680;48.850;2.310;2024-01-27T06:40:42;8.67;6.33;4.00
68698;PMS7003;55680;48.850;2.310;2024-01-27T06:43:08;6.50;6.50;3.50
68698;PMS7003;55680;48.850;2.310;2024-01-27T06:45:35;6.50;4.50;3.00
68698;PMS7003;55680;48.850;2.310;2024-01-27T06:48:01;4.75;4.75;2.00
68698;PMS7003;55680;48.850;2.310;2024-01-27T06:50:26;4.33;3.33;3.00
68698;PMS7003;55680;48.850;2.310;2024-01-27T06:52:51;7.00;7.00;6.00
68698;PMS7003;55680;48.850;2.310;2024-01-27T06:55:17;10.75;7.00;6.25
68698;PMS7003;55680;48.850;2.310;2024-01-27T06:57:43;9.33;9.33;5.33
68698;PMS7003;55680;48.850;2.310;2024-01-27T07:00:08;6.25;3.25;1.50
68698;PMS7003;55680;48.850;2.310;2024-01-27T07:02:33;10.50;6.25;4.00
68698;PMS7003;55680;48.850;2.310;2024-01-27T07:04:59;4.67;4.67;4.00
68698;PMS7003;55680;48.850;2.310;2024-01-27T07:07:28;7.25;7.25;4.50
68698;PMS7003;55680;48.850;2.310;2024-01-27T07:09:57;7.50;6.00;5.00
68698;PMS7003;55680;48.850;2.310;2024-01-27T07:12:22;9.50;6.50;3.50
68698;PMS7003;55680;48.850;2.310;2024-01-27T07:14:48;5.75;3.50;3.00
68698;PMS7003;55680;48.850;2.310;2024-01-27T07:17:13;0.00;0.00;0.00
68698;PMS7003;55680;48.850;2.310;2024-01-27T07:19:38;5.75;3.00;1.50
68698;PMS7003;55680;48.850;2.310;2024-01-27T07:22:04;5.00;4.50;3.00
68698;PMS7003;55680;48.850;2.310;2024-01-27T07:24:29;3.25;3.25;2.50
68698;PMS7003;55680;48.850;2.310;2024-01-27T07:26:55;5.25;4.00;1.00
68698;PMS7003;55680;48.850;2.310;2024-01-27T07:29:20;6.00;6.00;4.00
68698;PMS7003;55680;48.850;2.310;2024-01-27T07:31:46;4.50;4.00;3.00
68698;PMS7003;55680;48.850;2.310;2024-01-27T07:34:11;6.00;6.00;4.00
68698;PMS7003;55680;48.850;2.310;2024-01-27T07:36:36;6.00;3.75;2.50
68698;PMS7003;55680;48.850;2.310;2024-01-27T07:39:02;10.75;6.75;4.00
68698;PMS7003;55680;48.850;2.310;2024-01-27T07:41:29;3.50;3.50;3.00
68698;PMS7003;55680;48.850;2.310;2024-01-27T07:43:55;2.00;2.00;1.00
68698;PMS7003;55680;48.850;2.310;2024-01-27T07:46:20;3.25;3.25;1.50
68698;PMS7003;55680;48.850;2.310;2024-01-27T07:48:47;2.50;1.00;1.00
68698;PMS7003;55680;48.850;2.310;2024-01-27T07:51:16;6.25;3.75;3.00
68698;PMS7003;55680;48.850;2.310;2024-01-27T07:53:41;12.00;5.00;4.00
68698;PMS7003;55680;48.850;2.310;2024-01-27T07:56:07;3.00;3.00;1.00
68698;PMS7003;55680;48.850;2.310;2024-01-27T07:58:32;9.25;7.00;4.00
68698;PMS7003;55680;48.850;2.310;2024-01-27T08:00:57;6.25;4.50;4.25
68698;PMS7003;55680;48.850;2.310;2024-01-27T08:03:23;4.00;4.00;3.25
68698;PMS7003;55680;48.850;2.310;2024-01-27T08:05:48;6.75;4.00;3.00
68698;PMS7003;55680;48.850;2.310;2024-01-27T08:08:14;4.00;4.00;3.00
68698;PMS7003;55680;48.850;2.310;2024-01-27T08:10:39;2.00;1.00;0.25
68698;PMS7003;55680;48.850;2.310;2024-01-27T08:13:05;6.75;3.75;1.50
68698;PMS7003;55680;48.850;2.310;2024-01-27T08:15:30;4.50;4.00;1.00
68698;PMS7003;55680;48.850;2.310;2024-01-27T08:17:55;7.50;3.00;2.00
68698;PMS7003;55680;48.850;2.310;2024-01-27T08:20:21;4.50;4.50;1.50
68698;PMS7003;55680;48.850;2.310;2024-01-27T08:22:46;3.00;3.00;0.00
68698;PMS7003;55680;48.850;2.310;2024-01-27T08:25:15;3.25;1.00;0.50
68698;PMS7003;55680;48.850;2.310;2024-01-27T08:27:41;1.00;1.00;1.00
68698;PMS7003;55680;48.850;2.310;2024-01-27T08:30:06;2.50;0.50;0.00
68698;PMS7003;55680;48.850;2.310;2024-01-27T08:32:33;1.00;1.00;1.00
68698;PMS7003;55680;48.850;2.310;2024-01-27T08:34:58;1.00;1.00;0.50
68698;PMS7003;55680;48.850;2.310;2024-01-27T08:37:23;4.00;1.00;1.00
68698;PMS7003;55680;48.850;2.310;2024-01-27T08:39:49;4.00;4.00;2.00
68698;PMS7003;55680;48.850;2.310;2024-01-27T08:42:16;0.00;0.00;0.00
68698;PMS7003;55680;48.850;2.310;2024-01-27T08:44:41;3.75;3.00;1.00
68698;PMS7003;55680;48.850;2.310;2024-01-27T08:47:06;3.00;0.00;0.00
68698;PMS7003;55680;48.850;2.310;2024-01-27T08:49:32;1.00;1.00;0.75
68698;PMS7003;55680;48.850;2.310;2024-01-27T08:51:57;1.00;1.00;0.25
68698;PMS7003;55680;48.850;2.310;2024-01-27T08:54:22;2.50;2.50;2.50
68698;PMS7003;55680;48.850;2.310;2024-01-27T08:56:48;3.00;2.50;1.00
68698;PMS7003;55680;48.850;2.310;2024-01-27T08:59:13;3.25;0.00;0.00
68698;PMS7003;55680;48.850;2.310;2024-01-27T09:01:38;1.50;0.00;0.00
68698;PMS7003;55680;48.850;2.310;2024-01-27T09:04:04;3.00;2.00;1.00
68698;PMS7003;55680;48.850;2.310;2024-01-27T09:06:29;2.50;2.50;0.00
68698;PMS7003;55680;48.850;2.310;2024-01-27T09:08:54;1.50;1.50;1.00
68698;PMS7003;55680;48.850;2.310;2024-01-27T09:11:20;1.50;1.00;1.00
68698;PMS7003;55680;48.850;2.310;2024-01-27T09:13:47;3.25;3.25;3.00
68698;PMS7003;55680;48.850;2.310;2024-01-27T09:16:13;5.50;0.75;0.75
68698;PMS7003;55680;48.850;2.310;2024-01-27T09:18:39;1.75;0.75;0.25
68698;PMS7003;55680;48.850;2.310;2024-01-27T09:21:05;3.75;1.00;1.00
68698;PMS7003;55680;48.850;2.310;2024-01-27T09:23:31;3.25;1.00;1.00
68698;PMS7003;55680;48.850;2.310;2024-01-27T09:25:56;3.75;3.50;2.50
68698;PMS7003;55680;48.850;2.310;2024-01-27T09:28:22;2.00;2.00;1.00
68698;PMS7003;55680;48.850;2.310;2024-01-27T09:30:48;5.50;0.75;0.50
68698;PMS7003;55680;48.850;2.310;2024-01-27T09:33:14;0.00;0.00;0.00
68698;PMS7003;55680;48.850;2.310;2024-01-27T09:35:39;1.50;1.50;0.25
68698;PMS7003;55680;48.850;2.310;2024-01-27T09:38:05;3.25;3.25;1.00
68698;PMS7003;55680;48.850;2.310;2024-01-27T09:40:32;0.25;0.25;0.00
68698;PMS7003;55680;48.850;2.310;2024-01-27T09:42:58;6.00;4.00;3.00
68698;PMS7003;55680;48.850;2.310;2024-01-27T09:45:24;1.00;1.00;1.00
68698;PMS7003;55680;48.850;2.310;2024-01-27T09:47:49;3.00;1.00;0.00
68698;PMS7003;55680;48.850;2.310;2024-01-27T09:50:17;3.00;1.50;1.00
68698;PMS7003;55680;48.850;2.310;2024-01-27T09:52:42;3.00;3.00;3.00
68698;PMS7003;55680;48.850;2.310;2024-01-27T09:55:08;6.00;3.00;1.00
68698;PMS7003;55680;48.850;2.310;2024-01-27T09:57:33;0.00;0.00;0.00
68698;PMS7003;55680;48.850;2.310;2024-01-27T09:59:59;4.00;1.00;1.00
68698;PMS7003;55680;48.850;2.310;2024-01-27T10:02:26;7.25;3.00;1.50
68698;PMS7003;55680;48.850;2.310;2024-01-27T10:04:53;4.00;3.00;3.00
68698;PMS7003;55680;48.850;2.310;2024-01-27T10:07:19;5.00;3.50;2.50
68698;PMS7003;55680;48.850;2.310;2024-01-27T10:09:48;6.25;3.00;1.00
68698;PMS7003;55680;48.850;2.310;2024-01-27T10:12:14;6.00;6.00;4.00
68698;PMS7003;55680;48.850;2.310;2024-01-27T10:14:41;1.50;1.50;0.25
68698;PMS7003;55680;48.850;2.310;2024-01-27T10:17:19;1.00;1.00;1.00
68698;PMS7003;55680;48.850;2.310;2024-01-27T10:20:03;6.50;3.00;0.00
68698;PMS7003;55680;48.850;2.310;2024-01-27T10:22:36;4.00;1.50;1.50
68698;PMS7003;55680;48.850;2.310;2024-01-27T10:25:05;0.75;0.75;0.50
68698;PMS7003;55680;48.850;2.310;2024-01-27T10:27:31;9.00;4.00;2.00
68698;PMS7003;55680;48.850;2.310;2024-01-27T10:29:56;3.75;3.50;3.00
68698;PMS7003;55680;48.850;2.310;2024-01-27T10:32:22;4.00;4.00;3.00
68698;PMS7003;55680;48.850;2.310;2024-01-27T10:35:11;1.50;1.50;1.00
68698;PMS7003;55680;48.850;2.310;2024-01-27T10:37:36;1.00;1.00;1.00
68698;PMS7003;55680;48.850;2.310;2024-01-27T10:40:06;4.00;1.50;1.50
68698;PMS7003;55680;48.850;2.310;2024-01-27T10:42:35;2.50;2.50;1.00
68698;PMS7003;55680;48.850;2.310;2024-01-27T10:45:02;3.50;3.00;0.25
68698;PMS7003;55680;48.850;2.310;2024-01-27T10:47:28;6.00;3.00;2.00
68698;PMS7003;55680;48.850;2.310;2024-01-27T10:49:56;3.00;1.00;1.00
68698;PMS7003;55680;48.850;2.310;2024-01-27T10:52:23;4.50;1.00;0.00
68698;PMS7003;55680;48.850;2.310;2024-01-27T10:54:53;1.50;1.50;0.75
68698;PMS7003;55680;48.850;2.310;2024-01-27T10:57:21;6.00;4.00;3.00
68698;PMS7003;55680;48.850;2.310;2024-01-27T10:59:48;4.00;1.50;1.00
68698;PMS7003;55680;48.850;2.310;2024-01-27T11:02:14;3.00;3.00;1.00
68698;PMS7003;55680;48.850;2.310;2024-01-27T11:04:40;4.00;1.00;0.25
68698;PMS7003;55680;48.850;2.310;2024-01-27T11:07:06;4.00;4.00;3.75
68698;PMS7003;55680;48.850;2.310;2024-01-27T11:09:32;3.00;0.50;0.25
68698;PMS7003;55680;48.850;2.310;2024-01-27T11:11:59;3.00;3.00;1.00
68698;PMS7003;55680;48.850;2.310;2024-01-27T11:14:24;1.00;1.00;1.00
68698;PMS7003;55680;48.850;2.310;2024-01-27T11:16:54;1.50;1.50;1.00
68698;PMS7003;55680;48.850;2.310;2024-01-27T11:19:23;0.00;0.00;0.00
68698;PMS7003;55680;48.850;2.310;2024-01-27T11:21:59;1.00;1.00;0.00
68698;PMS7003;55680;48.850;2.310;2024-01-27T11:24:28;0.00;0.00;0.00
68698;PMS7003;55680;48.850;2.310;2024-01-27T11:27:03;0.00;0.00;0.00
68698;PMS7003;55680;48.850;2.310;2024-01-27T11:29:29;0.00;0.00;0.00
68698;PMS7003;55680;48.850;2.310;2024-01-27T11:31:57;0.00;0.00;0.00
68698;PMS7003;55680;48.850;2.310;2024-01-27T11:34:22;1.25;1.25;0.00
68698;PMS7003;55680;48.850;2.310;2024-01-27T11:36:48;3.75;0.00;0.00
68698;PMS7003;55680;48.850;2.310;2024-01-27T11:39:23;0.00;0.00;0.00
68698;PMS7003;55680;48.850;2.310;2024-01-27T11:42:04;0.00;0.00;0.00
68698;PMS7003;55680;48.850;2.310;2024-01-27T11:44:30;1.00;0.00;0.00
68698;PMS7003;55680;48.850;2.310;2024-01-27T11:46:56;0.00;0.00;0.00
68698;PMS7003;55680;48.850;2.310;2024-01-27T11:49:21;0.00;0.00;0.00
68698;PMS7003;55680;48.850;2.310;2024-01-27T11:51:47;0.00;0.00;0.00
68698;PMS7003;55680;48.850;2.310;2024-01-27T11:54:12;1.00;1.00;0.50
68698;PMS7003;55680;48.850;2.310;2024-01-27T11:56:38;0.00;0.00;0.00
68698;PMS7003;55680;48.850;2.310;2024-01-27T11:59:03;2.00;0.75;0.50
68698;PMS7003;55680;48.850;2.310;2024-01-27T12:01:28;0.00;0.00;0.00
68698;PMS7003;55680;48.850;2.310;2024-01-27T12:03:54;1.00;1.00;0.00
68698;PMS7003;55680;48.850;2.310;2024-01-27T12:06:19;2.00;0.50;0.25
68698;PMS7003;55680;48.850;2.310;2024-01-27T12:08:45;1.00;1.00;0.00
68698;PMS7003;55680;48.850;2.310;2024-01-27T12:11:12;0.00;0.00;0.00
68698;PMS7003;55680;48.850;2.310;2024-01-27T12:13:41;0.00;0.00;0.00
68698;PMS7003;55680;48.850;2.310;2024-01-27T12:16:07;0.00;0.00;0.00
68698;PMS7003;55680;48.850;2.310;2024-01-27T12:18:34;2.50;0.50;0.50
68698;PMS7003;55680;48.850;2.310;2024-01-27T12:20:59;1.00;0.00;0.00
68698;PMS7003;55680;48.850;2.310;2024-01-27T12:23:25;0.00;0.00;0.00
68698;PMS7003;55680;48.850;2.310;2024-01-27T12:25:53;2.00;0.00;0.00
68698;PMS7003;55680;48.850;2.310;2024-01-27T12:28:20;1.00;0.00;0.00
68698;PMS7003;55680;48.850;2.310;2024-01-27T12:30:47;1.25;0.75;0.00
68698;PMS7003;55680;48.850;2.310;2024-01-27T12:33:12;0.00;0.00;0.00
68698;PMS7003;55680;48.850;2.310;2024-01-27T12:35:38;0.00;0.00;0.00
68698;PMS7003;55680;48.850;2.310;2024-01-27T12:38:05;2.00;1.00;0.00
68698;PMS7003;55680;48.850;2.310;2024-01-27T12:40:31;0.50;0.50;0.00
68698;PMS7003;55680;48.850;2.310;2024-01-27T12:42:56;0.00;0.00;0.00
68698;PMS7003;55680;48.850;2.310;2024-01-27T12:45:21;0.00;0.00;0.00
68698;PMS7003;55680;48.850;2.310;2024-01-27T12:47:46;2.00;2.00;1.00
68698;PMS7003;55680;48.850;2.310;2024-01-27T12:50:12;2.50;0.00;0.00
68698;PMS7003;55680;48.850;2.310;2024-01-27T12:52:37;0.00;0.00;0.00
68698;PMS7003;55680;48.850;2.310;2024-01-27T12:55:03;0.75;0.75;0.00
68698;PMS7003;55680;48.850;2.310;2024-01-27T12:57:30;0.00;0.00;0.00
68698;PMS7003;55680;48.850;2.310;2024-01-27T12:59:55;0.75;0.00;0.00
68698;PMS7003;55680;48.850;2.310;2024-01-27T13:02:20;0.75;0.75;0.00
68698;PMS7003;55680;48.850;2.310;2024-01-27T13:04:46;0.00;0.00;0.00
68698;PMS7003;55680;48.850;2.310;2024-01-27T13:07:11;1.00;1.00;0.00
68698;PMS7003;55680;48.850;2.310;2024-01-27T13:09:36;0.75;0.00;0.00
68698;PMS7003;55680;48.850;2.310;2024-01-27T13:12:02;0.00;0.00;0.00
68698;PMS7003;55680;48.850;2.310;2024-01-27T13:14:28;0.00;0.00;0.00
68698;PMS7003;55680;48.850;2.310;2024-01-27T13:16:53;3.00;1.00;0.00
68698;PMS7003;55680;48.850;2.310;2024-01-27T13:19:19;0.50;0.00;0.00
68698;PMS7003;55680;48.850;2.310;2024-01-27T13:21:45;0.25;0.00;0.00
68698;PMS7003;55680;48.850;2.310;2024-01-27T13:24:10;0.00;0.00;0.00
68698;PMS7003;55680;48.850;2.310;2024-01-27T13:26:36;0.00;0.00;0.00
68698;PMS7003;55680;48.850;2.310;2024-01-27T13:29:03;0.75;0.00;0.00
68698;PMS7003;55680;48.850;2.310;2024-01-27T13:31:32;4.00;0.00;0.00
68698;PMS7003;55680;48.850;2.310;2024-01-27T13:33:57;1.00;0.00;0.00
68698;PMS7003;55680;48.850;2.310;2024-01-27T13:36:24;0.00;0.00;0.00
68698;PMS7003;55680;48.850;2.310;2024-01-27T13:38:49;0.00;0.00;0.00
68698;PMS7003;55680;48.850;2.310;2024-01-27T13:41:15;0.75;0.00;0.00
68698;PMS7003;55680;48.850;2.310;2024-01-27T13:43:40;0.00;0.00;0.00
68698;PMS7003;55680;48.850;2.310;2024-01-27T13:46:06;0.25;0.25;0.00
68698;PMS7003;55680;48.850;2.310;2024-01-27T13:48:32;1.00;0.00;0.00
68698;PMS7003;55680;48.850;2.310;2024-01-27T13:50:57;0.00;0.00;0.00
68698;PMS7003;55680;48.850;2.310;2024-01-27T13:53:23;0.00;0.00;0.00
68698;PMS7003;55680;48.850;2.310;2024-01-27T13:55:49;0.00;0.00;0.00
68698;PMS7003;55680;48.850;2.310;2024-01-27T13:58:14;0.00;0.00;0.00
68698;PMS7003;55680;48.850;2.310;2024-01-27T14:00:39;0.00;0.00;0.00
68698;PMS7003;55680;48.850;2.310;2024-01-27T14:03:05;0.00;0.00;0.00
68698;PMS7003;55680;48.850;2.310;2024-01-27T14:05:30;1.50;0.00;0.00
68698;PMS7003;55680;48.850;2.310;2024-01-27T14:07:55;0.00;0.00;0.00
68698;PMS7003;55680;48.850;2.310;2024-01-27T14:10:21;0.00;0.00;0.00
68698;PMS7003;55680;48.850;2.310;2024-01-27T14:12:46;0.00;0.00;0.00